createdAt,value
2022-09-29T00:00:59.055Z,941.23
2022-09-29T00:03:58.967Z,941.23
2022-09-29T00:06:58.917Z,941.24
2022-09-29T00:09:58.089Z,941.19
2022-09-29T00:12:59.178Z,941.26
2022-09-29T00:15:58.931Z,941.3
2022-09-29T00:18:59.331Z,941.23
2022-09-29T00:21:57.951Z,941.24
2022-09-29T00:24:59.498Z,941.29
2022-09-29T00:27:58.927Z,941.32
2022-09-29T00:30:58.612Z,941.3
2022-09-29T00:33:58.603Z,941.3
2022-09-29T00:36:58.519Z,941.3
2022-09-29T00:39:59.338Z,941.32
2022-09-29T00:42:59.337Z,941.25
2022-09-29T00:45:59.663Z,941.26
2022-09-29T00:48:58.305Z,941.22
2022-09-29T00:51:59.250Z,941.25
2022-09-29T00:54:59.268Z,941.23
2022-09-29T00:57:58.238Z,941.16
2022-09-29T01:00:58.451Z,941.22
2022-09-29T01:03:59.303Z,941.16
2022-09-29T01:06:59.324Z,941.15
2022-09-29T01:09:58.940Z,941.25
2022-09-29T01:12:58.890Z,941.12
2022-09-29T01:15:58.594Z,941.07
2022-09-29T01:18:59.008Z,941.09
2022-09-29T01:21:58.660Z,941.17
2022-09-29T01:24:59.087Z,941.09
2022-09-29T01:27:58.879Z,941.12
2022-09-29T01:30:59.817Z,941.06
2022-09-29T01:33:58.613Z,941.06
2022-09-29T01:36:58.676Z,941.0
2022-09-29T01:39:58.503Z,941.02
2022-09-29T01:42:58.552Z,940.99
2022-09-29T01:45:59.500Z,941.03
2022-09-29T01:48:58.772Z,941.09
2022-09-29T01:51:58.237Z,941.09
2022-09-29T01:54:59.275Z,941.12
2022-09-29T01:57:59.249Z,941.03
2022-09-29T02:00:59.155Z,941.06
2022-09-29T02:03:58.678Z,941.1
2022-09-29T02:06:58.556Z,941.05
2022-09-29T02:09:58.323Z,940.93
2022-09-29T02:12:58.447Z,941.09
2022-09-29T02:15:58.382Z,941.05
2022-09-29T02:18:58.910Z,941.05
2022-09-29T02:21:59.020Z,941.02
2022-09-29T02:24:58.789Z,941.03
2022-09-29T02:27:58.863Z,941.19
2022-09-29T02:30:58.952Z,941.21
2022-09-29T02:33:58.399Z,941.21
2022-09-29T02:36:58.979Z,941.14
2022-09-29T02:39:58.983Z,941.25
2022-09-29T02:42:58.674Z,941.14
2022-09-29T02:45:59.131Z,941.14
2022-09-29T02:48:58.945Z,941.11
2022-09-29T02:51:58.711Z,941.12
2022-09-29T02:54:58.578Z,941.02
2022-09-29T02:57:58.804Z,941.02
2022-09-29T03:00:59.461Z,941.14
2022-09-29T03:04:03.964Z,941.21
2022-09-29T03:06:58.549Z,941.18
2022-09-29T03:09:58.907Z,941.14
2022-09-29T03:12:58.823Z,941.08
2022-09-29T03:15:58.668Z,941.06
2022-09-29T03:18:59.328Z,941.14
2022-09-29T03:21:58.673Z,941.07
2022-09-29T03:24:58.918Z,941.08
2022-09-29T03:27:59.214Z,941.12
2022-09-29T03:30:59.308Z,940.98
2022-09-29T03:33:59.109Z,941.12
2022-09-29T03:36:59.577Z,941.01
2022-09-29T03:39:58.965Z,941.02
2022-09-29T03:42:59.597Z,941.05
2022-09-29T03:45:58.804Z,941.04
2022-09-29T03:48:58.243Z,941.05
2022-09-29T03:51:58.615Z,941.02
2022-09-29T03:54:59.091Z,941.03
2022-09-29T03:57:58.583Z,940.99
2022-09-29T04:00:59.670Z,941.07
2022-09-29T04:03:58.581Z,940.94
2022-09-29T04:06:59.654Z,941.01
2022-09-29T04:09:59.593Z,941.03
2022-09-29T04:12:58.666Z,940.97
2022-09-29T04:15:58.851Z,940.97
2022-09-29T04:18:58.477Z,940.94
2022-09-29T04:21:58.758Z,940.99
2022-09-29T04:24:58.888Z,940.91
2022-09-29T04:27:58.784Z,940.87
2022-09-29T04:31:01.799Z,940.78
2022-09-29T04:34:00.362Z,940.79
2022-09-29T04:37:00.892Z,940.87
2022-09-29T04:39:59.704Z,940.82
2022-09-29T04:42:59.870Z,940.79
2022-09-29T04:46:01.321Z,940.83
2022-09-29T04:49:01.068Z,940.76
2022-09-29T04:52:00.824Z,940.79
2022-09-29T04:54:59.971Z,940.85
2022-09-29T04:57:58.931Z,940.86
2022-09-29T05:01:00.543Z,941.08
2022-09-29T05:03:59.418Z,941.12
2022-09-29T05:06:59.090Z,941.05
2022-09-29T05:09:59.779Z,941.07
2022-09-29T05:12:58.742Z,941.15
2022-09-29T05:15:58.899Z,941.12
2022-09-29T05:18:59.837Z,941.19
2022-09-29T05:21:58.771Z,941.19
2022-09-29T05:24:59.564Z,941.12
2022-09-29T05:27:58.784Z,941.27
2022-09-29T05:30:59.479Z,941.23
2022-09-29T05:33:58.433Z,941.28
2022-09-29T05:36:58.503Z,941.31
2022-09-29T05:39:59.051Z,941.24
2022-09-29T05:42:59.245Z,941.29
2022-09-29T05:45:59.476Z,941.31
2022-09-29T05:48:59.362Z,941.31
2022-09-29T05:51:59.388Z,941.38
2022-09-29T05:54:58.988Z,941.37
2022-09-29T05:57:59.674Z,941.36
2022-09-29T06:00:59.228Z,941.34
2022-09-29T06:03:58.956Z,941.38
2022-09-29T06:06:59.862Z,941.39
2022-09-29T06:09:58.973Z,941.33
2022-09-29T06:12:59.868Z,941.4
2022-09-29T06:15:58.913Z,941.5
2022-09-29T06:18:59.670Z,941.46
2022-09-29T06:21:59.402Z,941.43
2022-09-29T06:24:59.107Z,941.41
2022-09-29T06:27:58.804Z,941.38
2022-09-29T06:30:59.579Z,941.41
2022-09-29T06:33:59.680Z,941.46
2022-09-29T06:36:59.084Z,941.33
2022-09-29T06:39:59.506Z,941.47
2022-09-29T06:42:58.527Z,941.46
2022-09-29T06:46:00.151Z,941.39
2022-09-29T06:48:59.143Z,941.41
2022-09-29T06:51:59.119Z,941.5
2022-09-29T06:54:59.234Z,941.48
2022-09-29T06:58:03.823Z,941.46
2022-09-29T07:00:59.418Z,941.41
2022-09-29T07:03:58.888Z,941.48
2022-09-29T07:06:59.104Z,941.47
2022-09-29T07:09:59.323Z,941.53
2022-09-29T07:12:58.404Z,941.48
2022-09-29T07:15:59.611Z,941.48
2022-09-29T07:18:59.075Z,941.52
2022-09-29T07:21:59.953Z,941.51
2022-09-29T07:24:58.879Z,941.48
2022-09-29T07:27:59.255Z,941.46
2022-09-29T07:31:06.486Z,941.52
2022-09-29T07:33:59.795Z,941.53
2022-09-29T07:36:58.611Z,941.59
2022-09-29T07:39:58.687Z,941.61
2022-09-29T07:42:59.647Z,941.65
2022-09-29T07:45:58.828Z,941.54
2022-09-29T07:48:59.429Z,941.63
2022-09-29T07:51:58.785Z,941.68
2022-09-29T07:54:59.435Z,941.63
2022-09-29T07:57:59.568Z,941.63
2022-09-29T08:00:59.011Z,941.69
2022-09-29T08:03:58.423Z,941.65
2022-09-29T08:06:59.245Z,941.58
2022-09-29T08:10:11.565Z,941.52
2022-09-29T08:13:00.183Z,941.62
2022-09-29T08:15:59.085Z,941.64
2022-09-29T08:18:59.403Z,941.48
2022-09-29T08:21:59.194Z,941.61
2022-09-29T08:24:59.129Z,941.59
2022-09-29T08:27:58.795Z,941.67
2022-09-29T08:31:04.023Z,941.7
2022-09-29T08:33:59.032Z,941.66
2022-09-29T08:36:59.299Z,941.69
2022-09-29T08:39:59.791Z,941.64
2022-09-29T08:42:59.851Z,941.78
2022-09-29T08:46:00.839Z,941.88
2022-09-29T08:48:59.470Z,941.79
2022-09-29T08:52:09.318Z,941.89
2022-09-29T08:55:07.529Z,941.91
2022-09-29T08:57:59.186Z,941.99
2022-09-29T09:00:58.861Z,942.01
2022-09-29T09:03:58.976Z,941.94
2022-09-29T09:06:59.062Z,941.99
2022-09-29T09:09:59.328Z,942.0
2022-09-29T09:12:58.588Z,942.06
2022-09-29T09:15:59.496Z,942.11
2022-09-29T09:21:59.234Z,942.21
2022-09-29T09:24:59.557Z,942.08
2022-09-29T09:27:58.918Z,942.25
2022-09-29T09:30:58.991Z,942.3
2022-09-29T09:34:04.922Z,942.28
2022-09-29T09:37:05.589Z,942.14
2022-09-29T09:39:59.075Z,942.14
2022-09-29T09:42:59.107Z,942.11
2022-09-29T09:45:59.117Z,942.09
2022-09-29T09:48:59.028Z,942.06
2022-09-29T09:51:59.414Z,941.99
2022-09-29T09:54:59.038Z,941.99
2022-09-29T09:57:58.864Z,942.09
2022-09-29T10:00:59.520Z,942.08
2022-09-29T10:03:59.594Z,942.02
2022-09-29T10:06:59.507Z,942.0
2022-09-29T10:09:58.877Z,942.0
2022-09-29T10:12:59.989Z,942.14
2022-09-29T10:15:59.629Z,942.1
2022-09-29T10:18:58.515Z,942.25
2022-09-29T10:21:58.726Z,942.22
2022-09-29T10:24:59.091Z,942.35
2022-09-29T10:27:59.328Z,942.35
2022-09-29T10:30:59.437Z,942.38
2022-09-29T10:33:59.247Z,942.37
2022-09-29T10:36:59.221Z,942.42
2022-09-29T10:39:58.277Z,942.41
2022-09-29T10:42:58.422Z,942.54
2022-09-29T10:45:59.486Z,942.42
2022-09-29T10:48:59.114Z,942.42
2022-09-29T10:51:58.939Z,942.42
2022-09-29T10:54:59.081Z,942.39
2022-09-29T10:57:59.139Z,942.41
2022-09-29T11:00:58.472Z,942.47
2022-09-29T11:04:16.861Z,942.45
2022-09-29T11:06:59.419Z,942.38
2022-09-29T11:09:58.767Z,942.43
2022-09-29T11:12:58.964Z,942.5
2022-09-29T11:15:58.825Z,942.52
2022-09-29T11:18:58.895Z,942.49
2022-09-29T11:21:59.476Z,942.5
2022-09-29T11:24:58.658Z,942.53
2022-09-29T11:27:58.981Z,942.63
2022-09-29T11:30:59.543Z,942.64
2022-09-29T11:33:58.599Z,942.65
2022-09-29T11:39:59.331Z,942.71
2022-09-29T11:42:59.274Z,942.7
2022-09-29T11:45:59.407Z,942.65
2022-09-29T11:48:59.212Z,942.68
2022-09-29T11:51:58.508Z,942.61
2022-09-29T11:54:59.224Z,942.59
2022-09-29T11:57:58.741Z,942.52
2022-09-29T12:00:59.332Z,942.46
2022-09-29T12:03:58.575Z,942.47
2022-09-29T12:06:59.577Z,942.45
2022-09-29T12:09:59.010Z,942.36
2022-09-29T12:12:59.319Z,942.37
2022-09-29T12:15:59.040Z,942.24
2022-09-29T12:18:59.938Z,942.3
2022-09-29T12:21:59.468Z,942.35
2022-09-29T12:24:58.953Z,942.28
2022-09-29T12:27:59.455Z,942.29
2022-09-29T12:30:59.300Z,942.31
2022-09-29T12:33:58.319Z,942.43
2022-09-29T12:36:58.890Z,942.44
2022-09-29T12:39:58.972Z,942.47
2022-09-29T12:42:58.962Z,942.47
2022-09-29T12:45:59.553Z,942.4
2022-09-29T12:48:58.876Z,942.43
2022-09-29T12:51:59.107Z,942.4
2022-09-29T12:54:59.290Z,942.46
2022-09-29T12:57:58.718Z,942.52
2022-09-29T13:00:59.478Z,942.55
2022-09-29T13:03:58.817Z,942.53
2022-09-29T13:06:59.099Z,942.5
2022-09-29T13:09:59.374Z,942.43
2022-09-29T13:12:58.659Z,942.43
2022-09-29T13:15:59.518Z,942.54
2022-09-29T13:19:06.744Z,942.59
2022-09-29T13:21:59.247Z,942.57
2022-09-29T13:24:59.132Z,942.67
2022-09-29T13:27:59.615Z,942.54
2022-09-29T13:30:58.812Z,942.57
2022-09-29T13:33:58.834Z,942.6
2022-09-29T13:36:59.336Z,942.52
2022-09-29T13:40:02.612Z,942.66
2022-09-29T13:42:58.815Z,942.59
2022-09-29T13:45:58.855Z,942.68
2022-09-29T13:48:59.260Z,942.5
2022-09-29T13:51:59.221Z,942.61
2022-09-29T13:54:58.491Z,942.58
2022-09-29T13:57:58.527Z,942.69
2022-09-29T14:01:00.270Z,942.67
2022-09-29T14:03:59.450Z,942.73
2022-09-29T14:06:58.874Z,942.65
2022-09-29T14:09:59.283Z,942.67
2022-09-29T14:12:59.591Z,942.74
2022-09-29T14:15:59.292Z,942.73
2022-09-29T14:18:59.494Z,942.76
2022-09-29T14:21:59.465Z,942.77
2022-09-29T14:24:59.658Z,942.74
2022-09-29T14:27:59.139Z,942.81
2022-09-29T14:30:59.184Z,942.86
2022-09-29T14:33:59.896Z,942.84
2022-09-29T14:36:59.137Z,942.94
2022-09-29T14:40:02.167Z,942.9
2022-09-29T14:42:59.385Z,942.92
2022-09-29T14:45:59.850Z,942.87
2022-09-29T14:48:59.091Z,942.95
2022-09-29T14:51:59.731Z,943.03
2022-09-29T14:54:59.565Z,943.04
2022-09-29T14:57:59.690Z,943.08
2022-09-29T15:00:59.276Z,943.05
2022-09-29T15:03:59.310Z,943.15
2022-09-29T15:06:58.597Z,943.1
2022-09-29T15:09:59.032Z,943.14
2022-09-29T15:12:58.857Z,943.13
2022-09-29T15:15:58.727Z,943.15
2022-09-29T15:18:58.430Z,943.24
2022-09-29T15:21:59.547Z,943.27
2022-09-29T15:24:58.489Z,943.26
2022-09-29T15:27:58.981Z,943.34
2022-09-29T15:30:59.613Z,943.36
2022-09-29T15:33:59.107Z,943.36
2022-09-29T15:36:59.139Z,943.43
2022-09-29T15:40:00.014Z,943.46
2022-09-29T15:42:59.096Z,943.54
2022-09-29T15:45:59.586Z,943.54
2022-09-29T15:48:59.017Z,943.62
2022-09-29T15:51:58.944Z,943.61
2022-09-29T15:54:59.736Z,943.57
2022-09-29T15:57:59.758Z,943.58
2022-09-29T16:00:59.981Z,943.68
2022-09-29T16:03:59.262Z,943.64
2022-09-29T16:06:58.822Z,943.65
2022-09-29T16:09:59.718Z,944.07
2022-09-29T16:12:58.904Z,943.74
2022-09-29T16:15:59.247Z,943.6
2022-09-29T16:18:58.994Z,943.7
2022-09-29T16:21:58.921Z,943.66
2022-09-29T16:24:58.528Z,943.77
2022-09-29T16:27:59.487Z,943.73
2022-09-29T16:31:00.589Z,943.74
2022-09-29T16:34:01.510Z,943.73
2022-09-29T16:36:59.255Z,943.79
2022-09-29T16:39:59.780Z,943.85
2022-09-29T16:42:59.199Z,943.78
2022-09-29T16:45:59.133Z,943.92
2022-09-29T16:48:59.276Z,943.95
2022-09-29T16:51:59.362Z,944.13
2022-09-29T16:55:00.009Z,944.15
2022-09-29T16:57:59.669Z,944.11
2022-09-29T17:01:00.213Z,944.08
2022-09-29T17:03:58.903Z,944.11
2022-09-29T17:06:58.802Z,944.18
2022-09-29T17:09:58.875Z,944.23
2022-09-29T17:12:58.986Z,944.18
2022-09-29T17:15:58.940Z,944.23
2022-09-29T17:18:59.602Z,944.27
2022-09-29T17:21:59.871Z,944.27
2022-09-29T17:24:58.735Z,944.17
2022-09-29T17:27:58.890Z,944.29
2022-09-29T17:30:58.641Z,944.41
2022-09-29T17:33:58.815Z,944.41
2022-09-29T17:36:59.163Z,944.44
2022-09-29T17:39:58.499Z,944.47
2022-09-29T17:42:59.460Z,944.46
2022-09-29T17:45:59.432Z,944.5
2022-09-29T17:48:58.774Z,944.41
2022-09-29T17:51:59.587Z,944.5
2022-09-29T17:54:59.385Z,944.4
2022-09-29T17:57:59.247Z,944.42
2022-09-29T18:01:26.402Z,944.45
2022-09-29T18:03:59.106Z,944.52
2022-09-29T18:06:58.395Z,944.51
2022-09-29T18:09:58.984Z,944.57
2022-09-29T18:12:59.090Z,944.62
2022-09-29T18:15:59.641Z,944.64
2022-09-29T18:18:59.248Z,944.6
2022-09-29T18:21:59.757Z,944.65
2022-09-29T18:24:58.849Z,944.71
2022-09-29T18:27:58.952Z,944.82
2022-09-29T18:30:59.609Z,944.86
2022-09-29T18:33:58.837Z,944.87
2022-09-29T18:36:58.795Z,944.73
2022-09-29T18:39:59.005Z,944.9
2022-09-29T18:42:58.513Z,944.93
2022-09-29T18:45:58.695Z,944.96
2022-09-29T18:48:58.942Z,944.99
2022-09-29T18:51:58.694Z,944.89
2022-09-29T18:54:58.700Z,945.04
2022-09-29T18:57:58.665Z,945.03
2022-09-29T19:00:59.279Z,945.12
2022-09-29T19:03:59.403Z,945.17
2022-09-29T19:06:58.414Z,945.16
2022-09-29T19:09:59.082Z,945.22
2022-09-29T19:12:59.166Z,945.32
2022-09-29T19:15:59.998Z,945.25
2022-09-29T19:18:59.284Z,945.28
2022-09-29T19:21:59.080Z,945.41
2022-09-29T19:24:59.397Z,945.38
2022-09-29T19:27:59.238Z,945.34
2022-09-29T19:30:59.015Z,945.39
2022-09-29T19:33:59.488Z,945.44
2022-09-29T19:36:58.622Z,945.43
2022-09-29T19:39:59.641Z,945.5
2022-09-29T19:42:58.669Z,945.46
2022-09-29T19:45:59.437Z,945.56
2022-09-29T19:48:58.628Z,945.49
2022-09-29T19:51:58.748Z,945.55
2022-09-29T19:55:00.103Z,945.5
2022-09-29T19:57:59.005Z,945.51
2022-09-29T20:00:59.532Z,945.55
2022-09-29T20:03:58.729Z,945.53
2022-09-29T20:06:59.279Z,945.55
2022-09-29T20:09:59.296Z,945.59
2022-09-29T20:12:58.892Z,945.58
2022-09-29T20:15:59.366Z,945.53
2022-09-29T20:18:58.282Z,945.51
2022-09-29T20:21:59.135Z,945.58
2022-09-29T20:24:59.627Z,945.54
2022-09-29T20:27:58.699Z,945.62
2022-09-29T20:30:59.254Z,945.62
2022-09-29T20:33:58.671Z,945.64
2022-09-29T20:36:59.089Z,945.61
2022-09-29T20:40:00.522Z,945.64
2022-09-29T20:42:59.223Z,945.77
2022-09-29T20:45:59.592Z,945.77
2022-09-29T20:48:58.601Z,945.77
2022-09-29T20:51:58.572Z,945.79
2022-09-29T20:54:59.052Z,945.83
2022-09-29T20:57:59.042Z,945.89
2022-09-29T21:00:58.782Z,945.96
2022-09-29T21:03:58.855Z,945.92
2022-09-29T21:06:59.100Z,946.08
2022-09-29T21:09:59.546Z,946.09
2022-09-29T21:12:58.636Z,946.09
2022-09-29T21:15:59.599Z,946.15
2022-09-29T21:18:58.463Z,946.22
2022-09-29T21:21:58.941Z,946.2
2022-09-29T21:24:59.372Z,946.25
2022-09-29T21:27:59.021Z,946.34
2022-09-29T21:30:59.791Z,946.35
2022-09-29T21:33:58.579Z,946.37
2022-09-29T21:36:59.491Z,946.37
2022-09-29T21:39:59.941Z,946.4
2022-09-29T21:42:59.820Z,946.46
2022-09-29T21:45:59.981Z,946.47
2022-09-29T21:48:59.622Z,946.5
2022-09-29T21:52:01.977Z,946.47
2022-09-29T21:54:59.614Z,946.58
2022-09-29T21:57:58.897Z,946.51
2022-09-29T22:01:00.920Z,946.56
2022-09-29T22:03:59.601Z,946.56
2022-09-29T22:06:59.470Z,946.61
2022-09-29T22:09:58.879Z,946.58
2022-09-29T22:12:59.785Z,946.59
2022-09-29T22:15:58.866Z,946.56
2022-09-29T22:19:21.422Z,946.56
2022-09-29T22:21:59.069Z,946.56
2022-09-29T22:24:58.691Z,946.59
2022-09-29T22:27:59.296Z,946.71
2022-09-29T22:31:00.011Z,946.58
2022-09-29T22:33:58.970Z,946.54
2022-09-29T22:36:59.926Z,946.64
2022-09-29T22:39:59.269Z,946.65
2022-09-29T22:42:59.681Z,946.68
2022-09-29T22:45:58.310Z,946.71
2022-09-29T22:48:59.770Z,946.7
2022-09-29T22:51:58.679Z,946.67
2022-09-29T22:55:00.185Z,946.67
2022-09-29T22:57:59.831Z,946.72
2022-09-29T23:00:59.760Z,946.73
2022-09-29T23:03:59.054Z,946.67
2022-09-29T23:06:59.341Z,946.75
2022-09-29T23:09:59.986Z,946.79
2022-09-29T23:12:59.568Z,946.83
2022-09-29T23:15:58.951Z,946.77
2022-09-29T23:18:58.939Z,946.85
2022-09-29T23:21:59.769Z,946.88
2022-09-29T23:24:58.773Z,946.85
2022-09-29T23:27:58.762Z,946.83
2022-09-29T23:30:59.541Z,946.93
2022-09-29T23:33:59.672Z,946.83
2022-09-29T23:36:59.559Z,946.88
2022-09-29T23:39:59.546Z,946.88
2022-09-29T23:42:58.812Z,946.84
2022-09-29T23:45:59.542Z,946.91
2022-09-29T23:48:58.666Z,946.89
2022-09-29T23:51:58.938Z,946.96
2022-09-29T23:54:59.057Z,946.93
2022-09-29T23:57:59.594Z,946.95
